sensor_id;sensor_type;location;lat;lon;timestamp;P1;durP1;ratioP1;P2;durP2;ratioP2
21769;SDS011;11046;49.558;8.674;2022-08-25T00:00:43;7.47;;;3.15;;
21769;SDS011;11046;49.558;8.674;2022-08-25T00:03:44;4.35;;;3.63;;
21769;SDS011;11046;49.558;8.674;2022-08-25T00:06:46;4.28;;;3.28;;
21769;SDS011;11046;49.558;8.674;2022-08-25T00:09:47;4.43;;;3.35;;
21769;SDS011;11046;49.558;8.674;2022-08-25T00:12:48;6.25;;;3.13;;
21769;SDS011;11046;49.558;8.674;2022-08-25T00:15:48;4.85;;;3.58;;
21769;SDS011;11046;49.558;8.674;2022-08-25T00:18:50;7.00;;;3.25;;
21769;SDS011;11046;49.558;8.674;2022-08-25T00:21:54;4.38;;;3.63;;
21769;SDS011;11046;49.558;8.674;2022-08-25T00:24:55;8.23;;;3.67;;
21769;SDS011;11046;49.558;8.674;2022-08-25T00:27:56;4.30;;;3.53;;
21769;SDS011;11046;49.558;8.674;2022-08-25T00:30:58;5.50;;;3.58;;
21769;SDS011;11046;49.558;8.674;2022-08-25T00:34:00;7.35;;;3.80;;
21769;SDS011;11046;49.558;8.674;2022-08-25T00:37:02;8.20;;;3.78;;
21769;SDS011;11046;49.558;8.674;2022-08-25T00:40:06;5.53;;;3.60;;
21769;SDS011;11046;49.558;8.674;2022-08-25T00:43:07;5.40;;;3.70;;
21769;SDS011;11046;49.558;8.674;2022-08-25T00:46:08;4.32;;;3.40;;
21769;SDS011;11046;49.558;8.674;2022-08-25T00:49:33;4.40;;;3.63;;
21769;SDS011;11046;49.558;8.674;2022-08-25T00:52:37;4.63;;;3.33;;
21769;SDS011;11046;49.558;8.674;2022-08-25T00:55:42;4.28;;;3.75;;
21769;SDS011;11046;49.558;8.674;2022-08-25T00:58:43;4.15;;;3.47;;
21769;SDS011;11046;49.558;8.674;2022-08-25T01:01:44;4.68;;;3.13;;
21769;SDS011;11046;49.558;8.674;2022-08-25T01:04:45;4.40;;;3.80;;
21769;SDS011;11046;49.558;8.674;2022-08-25T01:07:46;6.03;;;3.92;;
21769;SDS011;11046;49.558;8.674;2022-08-25T01:10:49;7.32;;;3.78;;
21769;SDS011;11046;49.558;8.674;2022-08-25T01:13:52;8.05;;;3.70;;
21769;SDS011;11046;49.558;8.674;2022-08-25T01:16:54;5.18;;;4.05;;
21769;SDS011;11046;49.558;8.674;2022-08-25T01:19:57;6.60;;;3.67;;
21769;SDS011;11046;49.558;8.674;2022-08-25T01:22:57;6.25;;;4.20;;
21769;SDS011;11046;49.558;8.674;2022-08-25T01:29:13;5.45;;;4.13;;
21769;SDS011;11046;49.558;8.674;2022-08-25T01:32:20;6.43;;;3.90;;
21769;SDS011;11046;49.558;8.674;2022-08-25T01:35:21;6.78;;;4.72;;
21769;SDS011;11046;49.558;8.674;2022-08-25T01:38:22;7.80;;;4.60;;
21769;SDS011;11046;49.558;8.674;2022-08-25T01:44:29;7.65;;;3.78;;
21769;SDS011;11046;49.558;8.674;2022-08-25T01:47:31;9.10;;;4.35;;
21769;SDS011;11046;49.558;8.674;2022-08-25T01:50:32;5.40;;;4.22;;
21769;SDS011;11046;49.558;8.674;2022-08-25T01:53:33;6.63;;;4.72;;
21769;SDS011;11046;49.558;8.674;2022-08-25T01:56:34;5.60;;;4.40;;
21769;SDS011;11046;49.558;8.674;2022-08-25T01:59:35;7.53;;;4.60;;
21769;SDS011;11046;49.558;8.674;2022-08-25T02:02:36;6.25;;;4.60;;
21769;SDS011;11046;49.558;8.674;2022-08-25T02:05:37;6.22;;;4.75;;
21769;SDS011;11046;49.558;8.674;2022-08-25T02:08:38;7.63;;;4.70;;
21769;SDS011;11046;49.558;8.674;2022-08-25T02:11:40;6.40;;;4.70;;
21769;SDS011;11046;49.558;8.674;2022-08-25T02:14:42;6.13;;;4.43;;
21769;SDS011;11046;49.558;8.674;2022-08-25T02:17:42;8.50;;;4.53;;
21769;SDS011;11046;49.558;8.674;2022-08-25T02:20:43;6.20;;;4.65;;
21769;SDS011;11046;49.558;8.674;2022-08-25T02:23:45;8.57;;;4.63;;
21769;SDS011;11046;49.558;8.674;2022-08-25T02:26:46;5.18;;;4.50;;
21769;SDS011;11046;49.558;8.674;2022-08-25T02:29:47;5.70;;;4.70;;
21769;SDS011;11046;49.558;8.674;2022-08-25T02:32:47;7.45;;;4.47;;
21769;SDS011;11046;49.558;8.674;2022-08-25T02:35:48;9.10;;;5.20;;
21769;SDS011;11046;49.558;8.674;2022-08-25T02:38:49;8.70;;;5.28;;
21769;SDS011;11046;49.558;8.674;2022-08-25T02:41:50;7.63;;;5.30;;
21769;SDS011;11046;49.558;8.674;2022-08-25T02:44:50;7.68;;;5.50;;
21769;SDS011;11046;49.558;8.674;2022-08-25T02:47:51;7.78;;;5.40;;
21769;SDS011;11046;49.558;8.674;2022-08-25T02:50:52;8.93;;;5.32;;
21769;SDS011;11046;49.558;8.674;2022-08-25T02:53:53;7.10;;;5.55;;
21769;SDS011;11046;49.558;8.674;2022-08-25T02:56:54;9.18;;;5.38;;
21769;SDS011;11046;49.558;8.674;2022-08-25T02:59:54;9.52;;;5.43;;
21769;SDS011;11046;49.558;8.674;2022-08-25T03:02:55;7.18;;;5.57;;
21769;SDS011;11046;49.558;8.674;2022-08-25T03:05:56;10.45;;;6.15;;
21769;SDS011;11046;49.558;8.674;2022-08-25T03:08:57;7.65;;;5.30;;
21769;SDS011;11046;49.558;8.674;2022-08-25T03:11:58;11.68;;;5.75;;
21769;SDS011;11046;49.558;8.674;2022-08-25T03:14:58;9.20;;;5.90;;
21769;SDS011;11046;49.558;8.674;2022-08-25T03:17:59;8.60;;;5.75;;
21769;SDS011;11046;49.558;8.674;2022-08-25T03:21:01;7.93;;;5.63;;
21769;SDS011;11046;49.558;8.674;2022-08-25T03:24:02;7.47;;;6.03;;
21769;SDS011;11046;49.558;8.674;2022-08-25T03:27:04;10.10;;;5.45;;
21769;SDS011;11046;49.558;8.674;2022-08-25T03:30:06;6.97;;;5.65;;
21769;SDS011;11046;49.558;8.674;2022-08-25T03:33:07;7.00;;;5.80;;
21769;SDS011;11046;49.558;8.674;2022-08-25T03:36:08;12.02;;;6.18;;
21769;SDS011;11046;49.558;8.674;2022-08-25T03:39:11;7.78;;;5.63;;
21769;SDS011;11046;49.558;8.674;2022-08-25T03:42:12;7.20;;;5.65;;
21769;SDS011;11046;49.558;8.674;2022-08-25T03:45:14;7.72;;;5.45;;
21769;SDS011;11046;49.558;8.674;2022-08-25T03:48:16;6.65;;;5.85;;
21769;SDS011;11046;49.558;8.674;2022-08-25T03:54:30;10.70;;;6.22;;
21769;SDS011;11046;49.558;8.674;2022-08-25T03:57:31;7.57;;;5.78;;
21769;SDS011;11046;49.558;8.674;2022-08-25T04:00:32;10.10;;;5.72;;
21769;SDS011;11046;49.558;8.674;2022-08-25T04:03:32;14.25;;;6.10;;
21769;SDS011;11046;49.558;8.674;2022-08-25T04:06:33;14.40;;;6.38;;
21769;SDS011;11046;49.558;8.674;2022-08-25T04:09:34;8.85;;;6.20;;
21769;SDS011;11046;49.558;8.674;2022-08-25T04:12:35;9.30;;;5.90;;
21769;SDS011;11046;49.558;8.674;2022-08-25T04:15:36;8.65;;;6.10;;
21769;SDS011;11046;49.558;8.674;2022-08-25T04:18:42;8.98;;;6.07;;
21769;SDS011;11046;49.558;8.674;2022-08-25T04:21:44;10.18;;;6.10;;
21769;SDS011;11046;49.558;8.674;2022-08-25T04:24:44;8.52;;;6.55;;
21769;SDS011;11046;49.558;8.674;2022-08-25T04:27:45;8.30;;;5.88;;
21769;SDS011;11046;49.558;8.674;2022-08-25T04:30:46;8.30;;;6.15;;
21769;SDS011;11046;49.558;8.674;2022-08-25T04:33:46;9.85;;;6.53;;
21769;SDS011;11046;49.558;8.674;2022-08-25T04:36:48;10.90;;;6.47;;
21769;SDS011;11046;49.558;8.674;2022-08-25T04:39:51;9.57;;;6.40;;
21769;SDS011;11046;49.558;8.674;2022-08-25T04:42:52;9.18;;;6.40;;
21769;SDS011;11046;49.558;8.674;2022-08-25T04:45:52;8.45;;;5.80;;
21769;SDS011;11046;49.558;8.674;2022-08-25T04:48:55;8.27;;;5.90;;
21769;SDS011;11046;49.558;8.674;2022-08-25T04:51:57;11.48;;;6.90;;
21769;SDS011;11046;49.558;8.674;2022-08-25T04:54:58;8.32;;;6.78;;
21769;SDS011;11046;49.558;8.674;2022-08-25T04:57:59;10.10;;;6.78;;
21769;SDS011;11046;49.558;8.674;2022-08-25T05:01:00;9.15;;;6.40;;
21769;SDS011;11046;49.558;8.674;2022-08-25T05:04:05;10.00;;;6.10;;
21769;SDS011;11046;49.558;8.674;2022-08-25T05:07:07;9.00;;;6.40;;
21769;SDS011;11046;49.558;8.674;2022-08-25T05:10:08;8.10;;;6.68;;
21769;SDS011;11046;49.558;8.674;2022-08-25T05:13:12;11.38;;;6.55;;
21769;SDS011;11046;49.558;8.674;2022-08-25T05:16:13;10.85;;;6.75;;
21769;SDS011;11046;49.558;8.674;2022-08-25T05:19:18;9.35;;;6.75;;
21769;SDS011;11046;49.558;8.674;2022-08-25T05:22:19;8.55;;;6.60;;
21769;SDS011;11046;49.558;8.674;2022-08-25T05:25:26;10.35;;;6.90;;
21769;SDS011;11046;49.558;8.674;2022-08-25T05:28:27;11.63;;;6.55;;
21769;SDS011;11046;49.558;8.674;2022-08-25T05:31:29;14.13;;;7.35;;
21769;SDS011;11046;49.558;8.674;2022-08-25T05:34:34;9.52;;;6.75;;
21769;SDS011;11046;49.558;8.674;2022-08-25T05:37:38;9.00;;;6.80;;
21769;SDS011;11046;49.558;8.674;2022-08-25T05:40:39;10.05;;;6.70;;
21769;SDS011;11046;49.558;8.674;2022-08-25T05:43:40;11.45;;;7.15;;
21769;SDS011;11046;49.558;8.674;2022-08-25T05:46:43;11.77;;;7.30;;
21769;SDS011;11046;49.558;8.674;2022-08-25T05:49:44;10.65;;;6.60;;
21769;SDS011;11046;49.558;8.674;2022-08-25T05:52:45;11.02;;;7.40;;
21769;SDS011;11046;49.558;8.674;2022-08-25T05:55:46;13.32;;;7.53;;
21769;SDS011;11046;49.558;8.674;2022-08-25T05:58:47;12.02;;;6.93;;
21769;SDS011;11046;49.558;8.674;2022-08-25T06:01:48;9.10;;;6.78;;
21769;SDS011;11046;49.558;8.674;2022-08-25T06:05:08;11.70;;;7.85;;
21769;SDS011;11046;49.558;8.674;2022-08-25T06:08:10;10.45;;;7.25;;
21769;SDS011;11046;49.558;8.674;2022-08-25T06:11:12;10.38;;;6.85;;
21769;SDS011;11046;49.558;8.674;2022-08-25T06:14:14;12.30;;;7.20;;
21769;SDS011;11046;49.558;8.674;2022-08-25T06:17:15;10.43;;;7.18;;
21769;SDS011;11046;49.558;8.674;2022-08-25T06:20:20;11.52;;;7.13;;
21769;SDS011;11046;49.558;8.674;2022-08-25T06:23:23;23.85;;;6.97;;
21769;SDS011;11046;49.558;8.674;2022-08-25T06:26:24;13.02;;;7.15;;
21769;SDS011;11046;49.558;8.674;2022-08-25T06:29:25;9.35;;;6.45;;
21769;SDS011;11046;49.558;8.674;2022-08-25T06:32:25;13.13;;;7.00;;
21769;SDS011;11046;49.558;8.674;2022-08-25T06:35:26;15.20;;;7.68;;
21769;SDS011;11046;49.558;8.674;2022-08-25T06:38:27;13.68;;;6.95;;
21769;SDS011;11046;49.558;8.674;2022-08-25T06:41:28;17.05;;;6.63;;
21769;SDS011;11046;49.558;8.674;2022-08-25T06:44:30;11.20;;;7.10;;
21769;SDS011;11046;49.558;8.674;2022-08-25T06:47:31;8.90;;;6.50;;
21769;SDS011;11046;49.558;8.674;2022-08-25T06:50:32;12.95;;;7.00;;
21769;SDS011;11046;49.558;8.674;2022-08-25T06:53:32;10.32;;;6.65;;
21769;SDS011;11046;49.558;8.674;2022-08-25T06:56:33;12.30;;;7.47;;
21769;SDS011;11046;49.558;8.674;2022-08-25T06:59:34;10.18;;;6.68;;
21769;SDS011;11046;49.558;8.674;2022-08-25T07:02:36;9.48;;;6.32;;
21769;SDS011;11046;49.558;8.674;2022-08-25T07:05:37;8.70;;;6.22;;
21769;SDS011;11046;49.558;8.674;2022-08-25T07:08:38;11.73;;;6.05;;
21769;SDS011;11046;49.558;8.674;2022-08-25T07:11:39;8.13;;;5.95;;
21769;SDS011;11046;49.558;8.674;2022-08-25T07:14:40;9.18;;;5.82;;
21769;SDS011;11046;49.558;8.674;2022-08-25T07:17:42;10.57;;;5.90;;
21769;SDS011;11046;49.558;8.674;2022-08-25T07:20:43;11.68;;;6.22;;
21769;SDS011;11046;49.558;8.674;2022-08-25T07:23:44;9.07;;;6.25;;
21769;SDS011;11046;49.558;8.674;2022-08-25T07:26:45;6.40;;;5.70;;
21769;SDS011;11046;49.558;8.674;2022-08-25T07:29:46;8.63;;;5.90;;
21769;SDS011;11046;49.558;8.674;2022-08-25T07:32:49;6.00;;;5.30;;
21769;SDS011;11046;49.558;8.674;2022-08-25T07:35:49;6.82;;;5.38;;
21769;SDS011;11046;49.558;8.674;2022-08-25T07:38:50;7.70;;;5.32;;
21769;SDS011;11046;49.558;8.674;2022-08-25T07:41:51;9.50;;;5.95;;
21769;SDS011;11046;49.558;8.674;2022-08-25T07:44:52;7.63;;;6.10;;
21769;SDS011;11046;49.558;8.674;2022-08-25T07:47:53;7.85;;;5.97;;
21769;SDS011;11046;49.558;8.674;2022-08-25T07:50:54;10.57;;;5.45;;
21769;SDS011;11046;49.558;8.674;2022-08-25T07:53:55;8.13;;;5.65;;
21769;SDS011;11046;49.558;8.674;2022-08-25T07:56:55;9.65;;;5.75;;
21769;SDS011;11046;49.558;8.674;2022-08-25T07:59:56;6.28;;;5.13;;
21769;SDS011;11046;49.558;8.674;2022-08-25T08:02:58;10.13;;;5.03;;
21769;SDS011;11046;49.558;8.674;2022-08-25T08:06:02;6.07;;;5.45;;
21769;SDS011;11046;49.558;8.674;2022-08-25T08:09:07;6.03;;;5.43;;
21769;SDS011;11046;49.558;8.674;2022-08-25T08:12:07;7.35;;;5.22;;
21769;SDS011;11046;49.558;8.674;2022-08-25T08:15:08;5.57;;;4.82;;
21769;SDS011;11046;49.558;8.674;2022-08-25T08:18:09;6.03;;;4.80;;
21769;SDS011;11046;49.558;8.674;2022-08-25T08:21:11;7.38;;;5.07;;
21769;SDS011;11046;49.558;8.674;2022-08-25T08:24:13;5.55;;;4.82;;
21769;SDS011;11046;49.558;8.674;2022-08-25T08:27:14;6.53;;;4.80;;
21769;SDS011;11046;49.558;8.674;2022-08-25T08:30:15;6.45;;;4.72;;
21769;SDS011;11046;49.558;8.674;2022-08-25T08:33:16;4.95;;;4.38;;
21769;SDS011;11046;49.558;8.674;2022-08-25T08:36:17;7.05;;;4.95;;
21769;SDS011;11046;49.558;8.674;2022-08-25T08:39:18;6.47;;;4.30;;
21769;SDS011;11046;49.558;8.674;2022-08-25T08:45:32;6.10;;;4.35;;
21769;SDS011;11046;49.558;8.674;2022-08-25T08:48:50;5.07;;;4.38;;
21769;SDS011;11046;49.558;8.674;2022-08-25T08:52:00;4.90;;;4.40;;
21769;SDS011;11046;49.558;8.674;2022-08-25T08:55:02;6.30;;;4.50;;
21769;SDS011;11046;49.558;8.674;2022-08-25T08:58:12;5.72;;;3.83;;
21769;SDS011;11046;49.558;8.674;2022-08-25T09:01:21;4.80;;;4.10;;
21769;SDS011;11046;49.558;8.674;2022-08-25T09:04:36;4.72;;;4.00;;
21769;SDS011;11046;49.558;8.674;2022-08-25T09:07:44;4.47;;;3.95;;
21769;SDS011;11046;49.558;8.674;2022-08-25T09:31:21;6.15;;;4.05;;
21769;SDS011;11046;49.558;8.674;2022-08-25T09:34:27;4.82;;;4.20;;
21769;SDS011;11046;49.558;8.674;2022-08-25T09:37:30;4.95;;;3.97;;
21769;SDS011;11046;49.558;8.674;2022-08-25T09:40:33;4.97;;;3.70;;
21769;SDS011;11046;49.558;8.674;2022-08-25T09:43:40;5.03;;;3.80;;
21769;SDS011;11046;49.558;8.674;2022-08-25T09:46:44;4.25;;;3.75;;
21769;SDS011;11046;49.558;8.674;2022-08-25T09:49:55;3.95;;;3.60;;
21769;SDS011;11046;49.558;8.674;2022-08-25T09:53:10;6.75;;;3.80;;
21769;SDS011;11046;49.558;8.674;2022-08-25T09:56:13;3.70;;;3.40;;
21769;SDS011;11046;49.558;8.674;2022-08-25T10:02:33;4.88;;;3.40;;
21769;SDS011;11046;49.558;8.674;2022-08-25T10:05:35;4.60;;;3.38;;
21769;SDS011;11046;49.558;8.674;2022-08-25T10:11:44;4.45;;;3.42;;
21769;SDS011;11046;49.558;8.674;2022-08-25T10:14:47;3.80;;;3.35;;
21769;SDS011;11046;49.558;8.674;2022-08-25T10:17:48;4.55;;;3.30;;
21769;SDS011;11046;49.558;8.674;2022-08-25T10:21:09;3.67;;;2.90;;
21769;SDS011;11046;49.558;8.674;2022-08-25T10:24:14;4.28;;;3.20;;
21769;SDS011;11046;49.558;8.674;2022-08-25T10:34:33;3.75;;;3.35;;
21769;SDS011;11046;49.558;8.674;2022-08-25T10:51:01;4.18;;;3.45;;
21769;SDS011;11046;49.558;8.674;2022-08-25T10:54:27;4.03;;;3.63;;
21769;SDS011;11046;49.558;8.674;2022-08-25T10:57:51;3.33;;;3.03;;
21769;SDS011;11046;49.558;8.674;2022-08-25T11:01:07;3.42;;;3.13;;
21769;SDS011;11046;49.558;8.674;2022-08-25T11:04:27;9.13;;;4.00;;
21769;SDS011;11046;49.558;8.674;2022-08-25T11:07:43;6.65;;;3.58;;
21769;SDS011;11046;49.558;8.674;2022-08-25T11:10:51;3.63;;;3.25;;
21769;SDS011;11046;49.558;8.674;2022-08-25T11:14:00;3.90;;;3.25;;
21769;SDS011;11046;49.558;8.674;2022-08-25T11:17:21;7.13;;;3.10;;
21769;SDS011;11046;49.558;8.674;2022-08-25T11:20:31;8.88;;;3.45;;
21769;SDS011;11046;49.558;8.674;2022-08-25T11:23:49;3.67;;;3.38;;
21769;SDS011;11046;49.558;8.674;2022-08-25T11:26:56;4.28;;;3.55;;
21769;SDS011;11046;49.558;8.674;2022-08-25T11:30:00;4.53;;;3.13;;
21769;SDS011;11046;49.558;8.674;2022-08-25T11:33:03;3.33;;;3.03;;
21769;SDS011;11046;49.558;8.674;2022-08-25T11:36:50;4.47;;;3.20;;
21769;SDS011;11046;49.558;8.674;2022-08-25T11:42:58;3.22;;;2.92;;
21769;SDS011;11046;49.558;8.674;2022-08-25T11:52:42;4.35;;;3.08;;
21769;SDS011;11046;49.558;8.674;2022-08-25T11:55:46;4.15;;;2.95;;
21769;SDS011;11046;49.558;8.674;2022-08-25T11:58:50;6.50;;;2.88;;
21769;SDS011;11046;49.558;8.674;2022-08-25T12:04:54;3.72;;;3.25;;
21769;SDS011;11046;49.558;8.674;2022-08-25T12:14:54;4.10;;;2.60;;
21769;SDS011;11046;49.558;8.674;2022-08-25T12:21:28;6.20;;;3.10;;
21769;SDS011;11046;49.558;8.674;2022-08-25T12:31:16;5.55;;;3.22;;
21769;SDS011;11046;49.558;8.674;2022-08-25T12:34:40;5.35;;;3.00;;
21769;SDS011;11046;49.558;8.674;2022-08-25T12:41:15;3.67;;;3.05;;
21769;SDS011;11046;49.558;8.674;2022-08-25T12:44:40;3.25;;;2.80;;
21769;SDS011;11046;49.558;8.674;2022-08-25T12:47:39;3.00;;;2.70;;
21769;SDS011;11046;49.558;8.674;2022-08-25T12:50:42;3.80;;;2.70;;
21769;SDS011;11046;49.558;8.674;2022-08-25T12:56:54;4.20;;;3.17;;
21769;SDS011;11046;49.558;8.674;2022-08-25T12:59:59;4.35;;;2.97;;
21769;SDS011;11046;49.558;8.674;2022-08-25T13:13:05;3.95;;;2.95;;
21769;SDS011;11046;49.558;8.674;2022-08-25T13:16:20;3.60;;;3.03;;
21769;SDS011;11046;49.558;8.674;2022-08-25T13:19:22;3.60;;;3.30;;
21769;SDS011;11046;49.558;8.674;2022-08-25T13:22:24;3.22;;;2.92;;
21769;SDS011;11046;49.558;8.674;2022-08-25T13:25:26;3.10;;;2.80;;
21769;SDS011;11046;49.558;8.674;2022-08-25T13:28:30;3.33;;;3.03;;
21769;SDS011;11046;49.558;8.674;2022-08-25T13:31:36;4.57;;;3.35;;
21769;SDS011;11046;49.558;8.674;2022-08-25T13:34:48;4.68;;;3.42;;
21769;SDS011;11046;49.558;8.674;2022-08-25T13:37:49;4.72;;;2.90;;
21769;SDS011;11046;49.558;8.674;2022-08-25T13:40:50;4.97;;;2.83;;
21769;SDS011;11046;49.558;8.674;2022-08-25T13:44:01;3.67;;;3.35;;
21769;SDS011;11046;49.558;8.674;2022-08-25T13:47:15;5.10;;;3.25;;
21769;SDS011;11046;49.558;8.674;2022-08-25T13:50:31;3.20;;;2.75;;
21769;SDS011;11046;49.558;8.674;2022-08-25T13:53:34;3.53;;;2.80;;
21769;SDS011;11046;49.558;8.674;2022-08-25T13:56:35;5.32;;;3.05;;
21769;SDS011;11046;49.558;8.674;2022-08-25T13:59:40;3.22;;;2.92;;
21769;SDS011;11046;49.558;8.674;2022-08-25T14:02:43;2.88;;;2.58;;
21769;SDS011;11046;49.558;8.674;2022-08-25T14:05:49;3.15;;;2.85;;
21769;SDS011;11046;49.558;8.674;2022-08-25T14:09:07;5.70;;;3.00;;
21769;SDS011;11046;49.558;8.674;2022-08-25T14:15:36;6.60;;;2.80;;
21769;SDS011;11046;49.558;8.674;2022-08-25T14:18:38;3.00;;;2.70;;
21769;SDS011;11046;49.558;8.674;2022-08-25T14:21:51;3.13;;;2.80;;
21769;SDS011;11046;49.558;8.674;2022-08-25T14:24:56;3.10;;;2.80;;
21769;SDS011;11046;49.558;8.674;2022-08-25T14:28:04;3.10;;;2.80;;
21769;SDS011;11046;49.558;8.674;2022-08-25T14:34:34;5.95;;;2.78;;
21769;SDS011;11046;49.558;8.674;2022-08-25T14:37:44;3.17;;;2.65;;
21769;SDS011;11046;49.558;8.674;2022-08-25T14:40:56;4.97;;;3.20;;
21769;SDS011;11046;49.558;8.674;2022-08-25T14:44:08;4.90;;;2.53;;
21769;SDS011;11046;49.558;8.674;2022-08-25T14:47:29;4.65;;;3.45;;
21769;SDS011;11046;49.558;8.674;2022-08-25T14:50:44;4.65;;;2.83;;
21769;SDS011;11046;49.558;8.674;2022-08-25T14:53:53;4.22;;;3.00;;
21769;SDS011;11046;49.558;8.674;2022-08-25T14:57:15;3.83;;;3.28;;
21769;SDS011;11046;49.558;8.674;2022-08-25T15:00:41;4.40;;;3.22;;
21769;SDS011;11046;49.558;8.674;2022-08-25T15:04:06;5.55;;;2.63;;
21769;SDS011;11046;49.558;8.674;2022-08-25T15:07:30;7.07;;;3.20;;
21769;SDS011;11046;49.558;8.674;2022-08-25T15:10:59;3.63;;;2.90;;
21769;SDS011;11046;49.558;8.674;2022-08-25T15:14:19;3.40;;;3.10;;
21769;SDS011;11046;49.558;8.674;2022-08-25T15:17:35;4.18;;;2.95;;
21769;SDS011;11046;49.558;8.674;2022-08-25T15:21:07;4.78;;;3.55;;
21769;SDS011;11046;49.558;8.674;2022-08-25T15:24:21;4.53;;;3.00;;
21769;SDS011;11046;49.558;8.674;2022-08-25T15:27:40;6.82;;;3.47;;
21769;SDS011;11046;49.558;8.674;2022-08-25T15:31:11;3.58;;;2.90;;
21769;SDS011;11046;49.558;8.674;2022-08-25T15:34:19;3.85;;;3.10;;
21769;SDS011;11046;49.558;8.674;2022-08-25T15:37:30;5.70;;;3.08;;
21769;SDS011;11046;49.558;8.674;2022-08-25T15:41:04;3.67;;;3.17;;
21769;SDS011;11046;49.558;8.674;2022-08-25T15:44:22;4.47;;;3.55;;
21769;SDS011;11046;49.558;8.674;2022-08-25T15:47:35;3.50;;;3.20;;
21769;SDS011;11046;49.558;8.674;2022-08-25T15:50:45;6.93;;;3.53;;
21769;SDS011;11046;49.558;8.674;2022-08-25T15:53:57;6.10;;;3.08;;
21769;SDS011;11046;49.558;8.674;2022-08-25T15:57:04;6.20;;;3.47;;
21769;SDS011;11046;49.558;8.674;2022-08-25T16:00:34;7.75;;;3.20;;
21769;SDS011;11046;49.558;8.674;2022-08-25T16:03:48;3.25;;;2.95;;
21769;SDS011;11046;49.558;8.674;2022-08-25T16:07:00;5.95;;;3.20;;
21769;SDS011;11046;49.558;8.674;2022-08-25T16:10:03;3.70;;;2.95;;
21769;SDS011;11046;49.558;8.674;2022-08-25T16:13:13;4.82;;;2.95;;
21769;SDS011;11046;49.558;8.674;2022-08-25T16:16:44;4.82;;;3.40;;
21769;SDS011;11046;49.558;8.674;2022-08-25T16:19:47;7.57;;;3.60;;
21769;SDS011;11046;49.558;8.674;2022-08-25T16:22:58;4.13;;;3.25;;
21769;SDS011;11046;49.558;8.674;2022-08-25T16:26:06;6.53;;;3.25;;
21769;SDS011;11046;49.558;8.674;2022-08-25T16:29:16;4.78;;;3.28;;
21769;SDS011;11046;49.558;8.674;2022-08-25T16:32:19;3.78;;;3.40;;
21769;SDS011;11046;49.558;8.674;2022-08-25T16:35:37;6.82;;;4.45;;
21769;SDS011;11046;49.558;8.674;2022-08-25T16:38:55;6.00;;;3.53;;
21769;SDS011;11046;49.558;8.674;2022-08-25T16:42:07;7.40;;;3.50;;
21769;SDS011;11046;49.558;8.674;2022-08-25T16:45:12;5.65;;;3.40;;
21769;SDS011;11046;49.558;8.674;2022-08-25T16:48:20;3.80;;;3.40;;
21769;SDS011;11046;49.558;8.674;2022-08-25T16:51:35;6.93;;;3.30;;
21769;SDS011;11046;49.558;8.674;2022-08-25T16:54:39;4.07;;;3.00;;
21769;SDS011;11046;49.558;8.674;2022-08-25T16:58:08;3.45;;;3.15;;
21769;SDS011;11046;49.558;8.674;2022-08-25T17:01:11;4.20;;;3.47;;
21769;SDS011;11046;49.558;8.674;2022-08-25T17:04:25;5.68;;;3.55;;
21769;SDS011;11046;49.558;8.674;2022-08-25T17:07:37;4.45;;;3.40;;
21769;SDS011;11046;49.558;8.674;2022-08-25T17:10:41;4.10;;;3.13;;
21769;SDS011;11046;49.558;8.674;2022-08-25T17:13:50;4.03;;;3.25;;
21769;SDS011;11046;49.558;8.674;2022-08-25T17:16:59;4.60;;;3.40;;
21769;SDS011;11046;49.558;8.674;2022-08-25T17:20:07;7.82;;;5.45;;
21769;SDS011;11046;49.558;8.674;2022-08-25T17:23:13;7.30;;;3.30;;
21769;SDS011;11046;49.558;8.674;2022-08-25T17:26:16;8.48;;;3.60;;
21769;SDS011;11046;49.558;8.674;2022-08-25T17:29:23;3.58;;;3.17;;
21769;SDS011;11046;49.558;8.674;2022-08-25T17:32:29;5.50;;;3.60;;
21769;SDS011;11046;49.558;8.674;2022-08-25T17:35:43;11.30;;;3.40;;
21769;SDS011;11046;49.558;8.674;2022-08-25T17:38:55;8.48;;;3.30;;
21769;SDS011;11046;49.558;8.674;2022-08-25T17:42:03;6.43;;;3.30;;
21769;SDS011;11046;49.558;8.674;2022-08-25T17:45:07;5.15;;;3.20;;
21769;SDS011;11046;49.558;8.674;2022-08-25T17:48:17;4.50;;;3.08;;
21769;SDS011;11046;49.558;8.674;2022-08-25T17:51:42;3.63;;;3.30;;
21769;SDS011;11046;49.558;8.674;2022-08-25T17:55:07;5.97;;;3.35;;
21769;SDS011;11046;49.558;8.674;2022-08-25T17:59:47;4.63;;;3.72;;
21769;SDS011;11046;49.558;8.674;2022-08-25T18:04:29;5.90;;;3.78;;
21769;SDS011;11046;49.558;8.674;2022-08-25T18:13:42;6.82;;;3.33;;
21769;SDS011;11046;49.558;8.674;2022-08-25T18:17:38;5.22;;;3.58;;
21769;SDS011;11046;49.558;8.674;2022-08-25T18:20:52;6.05;;;3.22;;
21769;SDS011;11046;49.558;8.674;2022-08-25T18:24:16;4.07;;;3.67;;
21769;SDS011;11046;49.558;8.674;2022-08-25T18:28:00;5.32;;;3.85;;
21769;SDS011;11046;49.558;8.674;2022-08-25T18:32:22;5.57;;;3.15;;
21769;SDS011;11046;49.558;8.674;2022-08-25T18:35:30;5.28;;;3.70;;
21769;SDS011;11046;49.558;8.674;2022-08-25T18:38:46;11.18;;;3.55;;
21769;SDS011;11046;49.558;8.674;2022-08-25T18:42:25;6.75;;;3.47;;
21769;SDS011;11046;49.558;8.674;2022-08-25T18:45:42;7.40;;;3.47;;
21769;SDS011;11046;49.558;8.674;2022-08-25T18:48:48;4.57;;;3.70;;
21769;SDS011;11046;49.558;8.674;2022-08-25T18:51:54;7.22;;;3.70;;
21769;SDS011;11046;49.558;8.674;2022-08-25T18:54:58;5.47;;;3.80;;
21769;SDS011;11046;49.558;8.674;2022-08-25T18:58:07;12.63;;;4.93;;
21769;SDS011;11046;49.558;8.674;2022-08-25T19:01:13;4.15;;;3.75;;
21769;SDS011;11046;49.558;8.674;2022-08-25T19:04:22;4.78;;;3.58;;
21769;SDS011;11046;49.558;8.674;2022-08-25T19:07:25;4.50;;;3.75;;
21769;SDS011;11046;49.558;8.674;2022-08-25T19:10:28;4.82;;;3.85;;
21769;SDS011;11046;49.558;8.674;2022-08-25T19:13:31;7.60;;;4.00;;
21769;SDS011;11046;49.558;8.674;2022-08-25T19:16:36;5.97;;;3.50;;
21769;SDS011;11046;49.558;8.674;2022-08-25T19:19:41;7.65;;;4.00;;
21769;SDS011;11046;49.558;8.674;2022-08-25T19:22:44;5.50;;;3.55;;
21769;SDS011;11046;49.558;8.674;2022-08-25T19:25:47;4.65;;;3.80;;
21769;SDS011;11046;49.558;8.674;2022-08-25T19:28:49;6.68;;;3.75;;
21769;SDS011;11046;49.558;8.674;2022-08-25T19:31:58;7.13;;;4.30;;
21769;SDS011;11046;49.558;8.674;2022-08-25T19:35:01;6.65;;;4.25;;
21769;SDS011;11046;49.558;8.674;2022-08-25T19:38:11;11.05;;;4.70;;
21769;SDS011;11046;49.558;8.674;2022-08-25T19:41:17;8.05;;;4.00;;
21769;SDS011;11046;49.558;8.674;2022-08-25T19:44:19;6.22;;;4.47;;
21769;SDS011;11046;49.558;8.674;2022-08-25T19:47:22;7.55;;;4.13;;
21769;SDS011;11046;49.558;8.674;2022-08-25T19:50:23;7.18;;;3.97;;
21769;SDS011;11046;49.558;8.674;2022-08-25T19:53:25;6.30;;;3.90;;
21769;SDS011;11046;49.558;8.674;2022-08-25T19:56:26;9.63;;;4.50;;
21769;SDS011;11046;49.558;8.674;2022-08-25T19:59:29;6.30;;;4.20;;
21769;SDS011;11046;49.558;8.674;2022-08-25T20:02:31;10.32;;;4.22;;
21769;SDS011;11046;49.558;8.674;2022-08-25T20:05:32;6.07;;;5.03;;
21769;SDS011;11046;49.558;8.674;2022-08-25T20:08:35;9.93;;;4.15;;
21769;SDS011;11046;49.558;8.674;2022-08-25T20:11:37;11.70;;;4.22;;
21769;SDS011;11046;49.558;8.674;2022-08-25T20:14:39;7.75;;;4.35;;
21769;SDS011;11046;49.558;8.674;2022-08-25T20:17:40;9.02;;;4.70;;
21769;SDS011;11046;49.558;8.674;2022-08-25T20:20:42;7.60;;;4.40;;
21769;SDS011;11046;49.558;8.674;2022-08-25T20:23:43;11.23;;;4.93;;
21769;SDS011;11046;49.558;8.674;2022-08-25T20:27:02;5.57;;;4.43;;
21769;SDS011;11046;49.558;8.674;2022-08-25T20:30:05;10.50;;;4.55;;
21769;SDS011;11046;49.558;8.674;2022-08-25T20:33:12;5.70;;;4.82;;
21769;SDS011;11046;49.558;8.674;2022-08-25T20:36:14;6.78;;;4.45;;
21769;SDS011;11046;49.558;8.674;2022-08-25T20:39:15;10.90;;;4.38;;
21769;SDS011;11046;49.558;8.674;2022-08-25T20:42:17;5.43;;;4.32;;